Time;durP1;ratioP1;P1;durP2;ratioP2;P2;SDS_P1;SDS_P2;PMS_P1;PMS_P2;Temp;Humidity;BMP_temperature;BMP_pressure;BME280_temperature;BME280_humidity;BME280_pressure;Samples;Min_cycle;Max_cycle;Signal;HPM_P1;HPM_P2
2023/01/18 00:01:36;;;;;;;;;28.00;28.00;;;;;2.22;69.00;98327.66;5035642;28;46103;-78
2023/01/18 00:04:02;;;;;;;;;24.50;21.75;;;;;2.35;68.94;98359.13;5035603;28;45338;-77
2023/01/18 00:06:27;;;;;;;;;26.50;25.00;;;;;2.14;69.99;98330.59;5036246;28;45351;-77
2023/01/18 00:08:53;;;;;;;;;27.75;27.00;;;;;2.28;69.21;98363.72;5036084;28;45578;-77
2023/01/18 00:11:19;;;;;;;;;27.00;25.25;;;;;2.24;69.91;98359.56;5035185;28;45283;-76
2023/01/18 00:13:46;;;;;;;;;27.75;25.50;;;;;2.15;70.15;98352.16;5033894;28;45497;-78
2023/01/18 00:16:21;;;;;;;;;23.50;23.50;;;;;2.17;69.88;98377.16;5038164;28;45329;-75
2023/01/18 00:18:53;;;;;;;;;25.75;25.25;;;;;2.08;69.86;98374.91;5071212;28;45242;-78
2023/01/18 00:21:20;;;;;;;;;21.00;21.00;;;;;2.05;69.58;98380.22;5038168;28;45323;-78
2023/01/18 00:23:45;;;;;;;;;25.25;25.25;;;;;1.96;70.10;98363.31;5035557;28;45234;-78
2023/01/18 00:26:12;;;;;;;;;30.75;29.50;;;;;2.02;70.74;98375.16;5036402;28;45320;-77
2023/01/18 00:28:39;;;;;;;;;20.50;20.25;;;;;1.94;70.88;98383.25;5037999;28;45454;-76
2023/01/18 00:31:14;;;;;;;;;24.25;24.25;;;;;1.83;70.82;98364.72;5038544;28;46409;-77
2023/01/18 00:33:44;;;;;;;;;1.00;0.00;;;;;1.88;70.29;98379.16;5068598;28;45414;-75
2023/01/18 00:36:10;;;;;;;;;22.50;21.75;;;;;1.86;70.92;98380.13;5035709;28;45411;-78
2023/01/18 00:38:36;;;;;;;;;24.50;24.50;;;;;1.79;70.96;98378.69;5035526;28;45244;-75
2023/01/18 00:41:01;;;;;;;;;23.75;23.75;;;;;1.74;71.14;98365.91;5067431;28;46963;-76
2023/01/18 00:43:38;;;;;;;;;25.50;25.00;;;;;1.88;70.65;98388.69;5034915;28;45399;-77
2023/01/18 00:46:17;;;;;;;;;25.25;25.25;;;;;1.86;71.05;98390.50;5035315;28;45297;-78
2023/01/18 00:48:43;;;;;;;;;23.00;23.00;;;;;1.83;70.19;98394.06;5035058;28;45371;-75
2023/01/18 00:51:11;;;;;;;;;26.75;26.75;;;;;1.74;70.84;98384.03;5035010;28;45394;-77
2023/01/18 00:53:38;;;;;;;;;21.75;20.00;;;;;1.73;70.48;98379.78;5036115;28;45191;-76
2023/01/18 00:56:07;;;;;;;;;26.00;26.00;;;;;1.79;70.62;98400.25;5035352;28;45327;-76
2023/01/18 00:58:34;;;;;;;;;19.50;19.50;;;;;1.77;71.00;98409.84;5036508;28;45430;-77
2023/01/18 01:00:59;;;;;;;;;22.25;21.75;;;;;1.65;70.42;98402.56;5071909;27;47917;-78
2023/01/18 01:03:24;;;;;;;;;25.75;24.75;;;;;1.72;70.89;98417.81;5038821;28;45356;-77
2023/01/18 01:08:34;;;;;;;;;22.25;22.25;;;;;1.69;71.23;98417.09;5038574;28;45422;-76
2023/01/18 01:11:10;;;;;;;;;21.50;21.50;;;;;1.71;70.99;98431.69;5037842;28;46458;-75
2023/01/18 01:27:16;;;;;;;;;27.00;27.00;;;;;1.69;71.36;98435.22;5057447;28;45417;-76
2023/01/18 01:29:42;;;;;;;;;28.25;25.75;;;;;1.66;71.52;98446.56;5058386;28;45680;-76
2023/01/18 01:32:07;;;;;;;;;24.75;24.75;;;;;1.66;71.91;98450.88;5060496;28;46089;-75
2023/01/18 01:34:32;;;;;;;;;18.75;18.75;;;;;1.67;71.81;98452.56;5059864;28;45346;-74
2023/01/18 01:36:58;;;;;;;;;29.00;28.25;;;;;1.65;71.91;98451.78;5058990;28;45410;-76
2023/01/18 01:39:23;;;;;;;;;23.00;22.75;;;;;1.57;72.10;98450.34;5057185;28;45433;-76
2023/01/18 01:41:49;;;;;;;;;27.00;25.50;;;;;1.56;71.46;98452.97;5058258;28;46346;-75
2023/01/18 01:44:18;;;;;;;;;21.75;21.75;;;;;1.59;72.34;98465.81;5057578;28;45356;-77
2023/01/18 01:46:56;;;;;;;;;21.75;21.75;;;;;1.63;72.23;98472.59;5060429;28;45423;-77
2023/01/18 01:49:30;;;;;;;;;22.25;21.25;;;;;1.60;71.45;98477.91;5064424;28;45311;-75
2023/01/18 01:52:04;;;;;;;;;22.50;21.50;;;;;1.54;71.56;98463.41;5072364;27;47147;-75
2023/01/18 01:54:35;;;;;;;;;21.00;19.25;;;;;1.61;71.24;98477.00;5057209;28;45469;-74
2023/01/18 01:57:04;;;;;;;;;24.25;24.25;;;;;1.59;71.95;98481.34;5057526;28;45258;-76
2023/01/18 01:59:31;;;;;;;;;19.25;18.75;;;;;1.61;71.37;98489.97;5056852;28;45483;-75
2023/01/18 02:01:57;;;;;;;;;19.50;19.50;;;;;1.59;71.94;98482.22;5057612;28;45376;-74
2023/01/18 02:04:23;;;;;;;;;24.75;24.75;;;;;1.58;71.61;98484.84;5057428;28;45343;-74
2023/01/18 02:06:48;;;;;;;;;21.75;21.75;;;;;1.57;71.55;98491.81;5057560;28;45490;-76
2023/01/18 02:09:21;;;;;;;;;20.75;20.75;;;;;1.53;71.37;98485.03;5056403;28;48551;-75
2023/01/18 02:11:50;;;;;;;;;19.25;19.25;;;;;1.58;71.62;98495.22;5056456;28;45670;-75
2023/01/18 02:14:16;;;;;;;;;19.75;19.25;;;;;1.50;71.57;98485.16;5056799;28;45310;-74
2023/01/18 02:16:51;;;;;;;;;24.25;24.25;;;;;1.58;72.23;98505.59;5072876;28;45356;-74
2023/01/18 02:19:30;;;;;;;;;20.25;20.25;;;;;1.56;72.38;98505.66;5057030;28;45467;-76
2023/01/18 02:22:21;;;;;;;;;18.50;18.50;;;;;1.54;72.14;98502.28;5057020;28;46990;-75
2023/01/18 02:25:17;;;;;;;;;20.75;20.75;;;;;1.55;72.02;98508.28;5056717;28;45450;-79
2023/01/18 02:27:54;;;;;;;;;21.25;18.75;;;;;1.54;72.53;98511.78;5057025;28;45270;-77
2023/01/18 02:30:36;;;;;;;;;20.00;20.00;;;;;1.48;72.46;98505.09;5057166;28;45430;-78
2023/01/18 02:33:12;;;;;;;;;18.25;16.75;;;;;1.55;72.37;98518.66;5056796;28;46655;-78
2023/01/18 02:35:50;;;;;;;;;15.00;15.00;;;;;1.56;71.87;98513.44;5055006;28;45468;-78
2023/01/18 02:38:25;;;;;;;;;15.00;15.00;;;;;1.55;72.03;98519.50;5056551;28;45354;-79
2023/01/18 02:41:08;;;;;;;;;16.00;16.00;;;;;1.48;71.39;98505.09;5056581;28;45276;-77
2023/01/18 02:46:30;;;;;;;;;18.00;17.50;;;;;1.56;72.00;98513.44;5071558;27;45343;-76
2023/01/18 02:49:21;;;;;;;;;14.25;12.50;;;;;1.62;71.32;98521.88;5058106;28;45461;-77
2023/01/18 02:51:46;;;;;;;;;17.50;16.75;;;;;1.60;71.89;98527.13;5056597;28;45419;-78
2023/01/18 02:54:22;;;;;;;;;13.25;13.00;;;;;1.58;71.70;98529.78;5057654;28;46023;-75
2023/01/18 02:56:52;;;;;;;;;14.50;14.50;;;;;1.59;71.59;98539.22;5056543;28;45323;-76
2023/01/18 02:59:25;;;;;;;;;15.50;15.50;;;;;1.48;71.56;98519.78;5055815;28;45354;-79
2023/01/18 03:02:01;;;;;;;;;17.25;17.25;;;;;1.51;71.83;98528.31;5054025;28;45591;-76
2023/01/18 03:04:32;;;;;;;;;15.75;13.50;;;;;1.55;71.87;98539.38;5056360;28;45424;-76
2023/01/18 03:07:04;;;;;;;;;18.75;15.50;;;;;1.31;72.14;98510.88;5055978;28;45304;-75
2023/01/18 03:09:30;;;;;;;;;16.50;15.25;;;;;1.50;71.43;98555.13;5055840;28;45347;-76
2023/01/18 03:12:05;;;;;;;;;16.50;16.50;;;;;1.45;71.68;98544.06;5048098;28;45267;-79
2023/01/18 03:14:53;;;;;;;;;17.75;17.75;;;;;1.47;72.00;98563.00;5036285;28;47026;-77
2023/01/18 03:17:24;;;;;;;;;17.00;17.00;;;;;1.38;71.68;98546.03;5036487;28;45380;-77
2023/01/18 03:20:07;;;;;;;;;13.50;13.50;;;;;1.40;71.50;98557.19;5047714;28;45384;-77
2023/01/18 03:25:36;;;;;;;;;16.00;13.75;;;;;1.34;71.98;98564.34;5055850;28;45347;-75
2023/01/18 03:33:45;;;;;;;;;20.50;17.75;;;;;1.31;72.09;98576.50;5057682;28;45766;-76
2023/01/18 03:36:23;;;;;;;;;15.25;15.25;;;;;1.31;71.84;98573.03;5056052;28;45397;-78
2023/01/18 03:38:54;;;;;;;;;19.00;19.00;;;;;1.28;72.19;98571.41;5056050;28;45373;-75
2023/01/18 03:41:24;;;;;;;;;19.25;19.25;;;;;1.26;72.50;98577.53;5057317;28;45382;-74
2023/01/18 03:43:53;;;;;;;;;17.25;17.25;;;;;1.24;72.43;98574.16;5056885;28;45238;-74
2023/01/18 03:46:22;;;;;;;;;17.00;17.00;;;;;1.19;72.48;98573.47;5053491;28;47227;-76
2023/01/18 03:48:48;;;;;;;;;13.25;13.25;;;;;1.19;72.38;98584.69;5055536;28;45295;-77
2023/01/18 03:51:23;;;;;;;;;11.75;11.75;;;;;1.17;73.07;98589.91;5055703;28;45757;-76
2023/01/18 03:53:49;;;;;;;;;19.00;19.00;;;;;1.17;72.73;98604.59;5055340;28;45402;-78
2023/01/18 03:56:37;;;;;;;;;18.25;18.25;;;;;1.15;73.17;98616.75;5055614;28;46012;-75
2023/01/18 03:59:04;;;;;;;;;20.75;20.75;;;;;1.14;73.10;98620.25;5055632;28;45370;-76
2023/01/18 04:01:30;;;;;;;;;14.00;14.00;;;;;0.93;73.21;98585.53;5055678;27;45322;-76
2023/01/18 04:03:56;;;;;;;;;18.25;18.25;;;;;1.13;73.07;98623.75;5038991;28;45434;-75
2023/01/18 04:06:22;;;;;;;;;21.50;20.50;;;;;1.13;73.37;98636.69;5036421;28;45560;-77
2023/01/18 04:08:51;;;;;;;;;20.00;19.25;;;;;1.07;73.41;98622.19;5044310;28;45573;-76
2023/01/18 04:11:16;;;;;;;;;23.00;22.00;;;;;1.14;73.21;98636.63;5056072;28;45358;-78
2023/01/18 04:13:42;;;;;;;;;23.25;22.25;;;;;1.15;73.22;98640.06;5056215;28;45246;-76
2023/01/18 04:16:07;;;;;;;;;24.00;22.00;;;;;1.12;73.05;98637.59;5053958;28;45354;-74
2023/01/18 04:18:33;;;;;;;;;9.75;9.75;;;;;1.14;72.85;98648.75;5046840;28;45316;-76
2023/01/18 04:20:58;;;;;;;;;26.25;25.25;;;;;1.10;73.48;98660.94;5056542;28;45410;-76
2023/01/18 04:23:24;;;;;;;;;20.50;20.50;;;;;0.96;73.12;98643.22;5071382;28;45583;-76
2023/01/18 04:25:50;;;;;;;;;19.25;19.25;;;;;0.99;73.72;98653.50;5070725;27;47671;-76
2023/01/18 04:28:16;;;;;;;;;30.00;29.50;;;;;0.96;73.48;98661.34;5054467;28;45240;-76
2023/01/18 04:30:41;;;;;;;;;25.50;24.25;;;;;0.82;73.32;98640.25;5055780;28;45268;-79
2023/01/18 04:33:07;;;;;;;;;25.00;25.00;;;;;0.93;73.88;98668.38;5058876;28;45284;-75
2023/01/18 04:35:32;;;;;;;;;24.75;24.75;;;;;0.89;73.48;98664.19;5057854;28;47328;-74
2023/01/18 04:37:58;;;;;;;;;24.00;24.00;;;;;0.87;74.17;98669.41;5062758;28;45376;-77
2023/01/18 04:40:23;;;;;;;;;24.50;23.75;;;;;0.79;74.05;98661.91;5039768;28;45307;-76
2023/01/18 04:42:53;;;;;;;;;20.50;19.25;;;;;0.85;73.72;98671.19;5058921;28;45552;-77
2023/01/18 04:45:19;;;;;;;;;17.75;17.75;;;;;0.84;73.96;98680.72;5057233;28;45448;-77
2023/01/18 04:47:45;;;;;;;;;26.75;26.75;;;;;0.84;73.53;98685.91;5056496;28;45431;-74
2023/01/18 04:50:10;;;;;;;;;26.50;25.25;;;;;0.84;73.65;98683.31;5058055;28;45322;-78
2023/01/18 04:52:35;;;;;;;;;16.75;16.75;;;;;0.81;73.91;98678.22;5058837;28;45645;-76
2023/01/18 04:55:01;;;;;;;;;23.00;23.00;;;;;0.87;73.80;98682.34;5057872;28;46005;-76
2023/01/18 04:57:26;;;;;;;;;22.00;22.00;;;;;0.89;73.90;98683.16;5073504;27;45262;-77
2023/01/18 04:59:53;;;;;;;;;22.00;21.50;;;;;0.89;73.78;98683.16;5040566;28;45238;-74
2023/01/18 05:02:19;;;;;;;;;23.25;23.25;;;;;0.90;74.00;98686.59;5038745;28;45259;-76
2023/01/18 05:04:44;;;;;;;;;26.00;25.50;;;;;0.91;73.63;98688.28;5038733;28;46121;-75
2023/01/18 05:07:10;;;;;;;;;21.25;21.25;;;;;0.95;73.82;98697.66;5043415;28;45219;-77
2023/01/18 05:09:36;;;;;;;;;18.00;18.00;;;;;0.98;73.87;98692.38;5044479;28;45565;-73
2023/01/18 05:12:01;;;;;;;;;22.75;22.00;;;;;0.97;73.61;98691.53;5041830;28;45389;-75
2023/01/18 05:14:26;;;;;;;;;20.75;20.75;;;;;0.95;73.49;98693.31;5053759;28;48127;-77
2023/01/18 05:16:52;;;;;;;;;21.00;21.00;;;;;0.98;73.82;98701.00;5058074;28;45333;-74
2023/01/18 05:19:17;;;;;;;;;20.25;20.25;;;;;0.98;73.53;98698.41;5047317;28;45788;-76
2023/01/18 05:21:42;;;;;;;;;18.25;17.50;;;;;0.96;73.40;98702.78;5037827;28;45525;-75
2023/01/18 05:24:08;;;;;;;;;21.75;21.75;;;;;0.97;73.21;98711.41;5037358;28;46931;-76
2023/01/18 05:26:33;;;;;;;;;21.75;21.75;;;;;1.00;73.32;98714.72;5037330;28;45443;-77
2023/01/18 05:28:59;;;;;;;;;20.50;18.75;;;;;1.02;73.27;98712.94;5050736;28;45508;-75
2023/01/18 05:31:24;;;;;;;;;18.75;18.75;;;;;0.90;73.55;98692.63;5036293;28;45613;-76
2023/01/18 05:33:50;;;;;;;;;19.50;19.50;;;;;1.01;73.72;98716.44;5037461;28;45315;-76
2023/01/18 05:36:15;;;;;;;;;20.00;20.00;;;;;1.04;73.31;98725.00;5035818;28;45279;-76
2023/01/18 05:38:41;;;;;;;;;20.75;20.75;;;;;1.03;73.49;98721.56;5036806;28;45327;-77
2023/01/18 05:41:06;;;;;;;;;24.50;23.50;;;;;1.05;74.06;98724.09;5056789;28;45450;-77
2023/01/18 05:43:32;;;;;;;;;21.50;21.50;;;;;1.07;73.76;98727.53;5057073;28;45839;-77
2023/01/18 05:45:58;;;;;;;;;21.00;21.00;;;;;1.06;74.31;98738.75;5056593;28;45279;-76
2023/01/18 05:48:24;;;;;;;;;21.50;21.50;;;;;1.02;73.58;98736.25;5055535;28;45326;-76
2023/01/18 05:50:50;;;;;;;;;27.75;26.25;;;;;1.05;73.76;98743.09;5037956;28;45416;-77
2023/01/18 05:53:18;;;;;;;;;26.25;25.50;;;;;1.04;73.70;98751.75;5038525;28;45421;-79
2023/01/18 05:55:52;;;;;;;;;17.75;17.50;;;;;1.02;73.68;98754.38;5036186;28;45859;-76
2023/01/18 05:58:18;;;;;;;;;25.00;25.00;;;;;1.00;73.61;98758.75;5036605;28;45411;-77
2023/01/18 06:00:43;;;;;;;;;22.25;22.25;;;;;0.98;73.53;98762.28;5058430;28;52750;-78
2023/01/18 06:03:09;;;;;;;;;20.75;20.75;;;;;0.95;73.84;98765.81;5058654;28;46361;-79
2023/01/18 06:05:34;;;;;;;;;23.50;23.50;;;;;0.87;73.02;98754.84;5056690;28;45341;-77
2023/01/18 06:07:59;;;;;;;;;18.00;17.25;;;;;0.87;73.84;98753.13;5073017;28;45404;-78
2023/01/18 06:10:25;;;;;;;;;20.50;20.50;;;;;0.84;74.12;98750.63;5056130;28;45231;-76
2023/01/18 06:12:50;;;;;;;;;18.75;18.75;;;;;0.93;73.34;98769.34;5056321;28;45280;-77
2023/01/18 06:15:16;;;;;;;;;21.75;21.25;;;;;0.92;73.87;98778.84;5057702;28;45394;-75
2023/01/18 06:17:44;;;;;;;;;23.75;22.25;;;;;0.83;74.18;98768.75;5057622;28;45403;-76
2023/01/18 06:20:11;;;;;;;;;25.00;23.25;;;;;0.85;74.36;98773.03;5057015;28;45355;-77
2023/01/18 06:22:36;;;;;;;;;23.50;23.00;;;;;0.90;74.72;98777.22;5045790;28;47056;-77
2023/01/18 06:25:02;;;;;;;;;29.50;25.75;;;;;1.01;74.50;98798.44;5051293;28;45555;-77
2023/01/18 06:27:27;;;;;;;;;26.75;26.00;;;;;1.01;74.65;98804.47;5036627;28;45290;-77
2023/01/18 06:29:53;;;;;;;;;26.25;25.50;;;;;1.05;74.05;98806.97;5050875;28;45532;-77
2023/01/18 06:32:18;;;;;;;;;20.50;20.50;;;;;1.01;74.26;98812.22;5063261;28;49204;-78
2023/01/18 06:34:43;;;;;;;;;22.25;22.25;;;;;0.98;74.18;98814.91;5053745;28;44847;-78
2023/01/18 06:37:09;;;;;;;;;26.25;26.25;;;;;1.00;74.19;98825.25;5058524;28;45326;-76
2023/01/18 06:39:34;;;;;;;;;24.50;22.50;;;;;0.99;73.87;98820.94;5056651;28;45434;-77
2023/01/18 06:42:00;;;;;;;;;29.25;29.25;;;;;1.00;74.35;98833.00;5057117;28;46129;-77
2023/01/18 06:44:26;;;;;;;;;30.25;29.00;;;;;1.00;73.76;98835.59;5046738;28;45461;-78
2023/01/18 06:46:51;;;;;;;;;27.75;27.75;;;;;0.97;73.99;98836.50;5040034;28;45236;-76
2023/01/18 06:49:16;;;;;;;;;31.75;30.50;;;;;0.98;73.51;98848.56;5048150;28;45536;-77
2023/01/18 06:51:42;;;;;;;;;30.25;29.50;;;;;0.85;73.97;98834.28;5056029;28;64398;-77
2023/01/18 06:54:07;;;;;;;;;28.00;28.00;;;;;0.96;73.80;98855.53;5055647;28;45433;-77
2023/01/18 06:56:33;;;;;;;;;27.75;27.75;;;;;0.95;74.21;98853.84;5056364;28;45244;-77
2023/01/18 06:58:59;;;;;;;;;29.75;29.00;;;;;0.95;74.29;98860.78;5047775;28;45469;-76
2023/01/18 07:01:25;;;;;;;;;29.00;29.00;;;;;0.88;73.32;98852.31;5051764;28;46483;-75
2023/01/18 07:03:51;;;;;;;;;28.75;28.00;;;;;0.88;73.81;98862.66;5052593;28;45339;-76
2023/01/18 07:06:19;;;;;;;;;25.25;25.00;;;;;0.91;73.50;98867.75;5035969;28;45411;-76
2023/01/18 07:08:47;;;;;;;;;28.50;27.75;;;;;0.87;73.78;98869.59;5041493;28;45578;-76
2023/01/18 07:11:13;;;;;;;;;26.75;26.75;;;;;0.76;73.90;98847.47;5053428;28;46331;-75
2023/01/18 07:13:39;;;;;;;;;27.50;27.25;;;;;0.87;73.43;98860.97;5046638;28;45311;-78
2023/01/18 07:16:06;;;;;;;;;31.25;31.25;;;;;0.92;73.46;98873.81;5035109;28;45368;-77
2023/01/18 07:18:32;;;;;;;;;29.50;28.50;;;;;0.86;73.25;98870.50;5045265;28;45554;-77
2023/01/18 07:21:05;;;;;;;;;44.75;42.00;;;;;0.95;73.50;98890.09;5056699;28;45512;-77
2023/01/18 07:23:33;;;;;;;;;26.75;25.25;;;;;1.00;73.85;98897.75;5056835;28;45429;-78
2023/01/18 07:26:15;;;;;;;;;28.25;27.75;;;;;1.02;73.48;98896.78;5065254;28;45470;-75
2023/01/18 07:28:41;;;;;;;;;29.25;27.75;;;;;1.04;73.65;98903.66;5055846;28;45422;-78
2023/01/18 07:31:07;;;;;;;;;22.50;22.50;;;;;0.84;73.71;98869.69;5055932;28;45416;-77
2023/01/18 07:33:34;;;;;;;;;29.50;29.50;;;;;1.08;73.41;98913.91;5043322;28;45642;-75
2023/01/18 07:36:00;;;;;;;;;27.50;25.75;;;;;1.10;74.16;98908.69;5035981;28;45399;-77
2023/01/18 07:38:26;;;;;;;;;30.00;29.00;;;;;1.12;73.75;98917.28;5049173;28;45496;-76
2023/01/18 07:40:57;;;;;;;;;23.50;23.50;;;;;1.11;73.98;98905.22;5053723;28;46444;-78
2023/01/18 07:43:23;;;;;;;;;27.75;27.75;;;;;1.23;74.10;98922.13;5052719;28;45341;-74
2023/01/18 07:45:53;;;;;;;;;27.50;27.00;;;;;1.27;74.28;98927.19;5054471;28;45550;-75
2023/01/18 07:48:18;;;;;;;;;30.75;30.75;;;;;1.29;74.24;98925.41;5054550;28;45382;-78
2023/01/18 07:50:54;;;;;;;;;30.50;30.50;;;;;1.21;74.66;98910.97;5054684;28;46317;-77
2023/01/18 07:53:20;;;;;;;;;32.75;32.25;;;;;1.41;74.89;98950.09;5057262;28;45470;-77
2023/01/18 07:55:46;;;;;;;;;22.75;22.75;;;;;1.42;74.35;98945.78;5054947;28;45984;-76
2023/01/18 07:58:11;;;;;;;;;31.75;31.00;;;;;1.44;74.31;98949.19;5054447;28;45513;-76
2023/01/18 08:00:37;;;;;;;;;31.00;29.50;;;;;1.44;73.93;98949.19;5056673;28;45416;-77
2023/01/18 08:03:02;;;;;;;;;25.50;25.50;;;;;1.38;72.81;98934.63;5051233;28;45349;-74
2023/01/18 08:05:28;;;;;;;;;30.00;27.50;;;;;1.34;73.21;98927.00;5055862;28;45928;-75
2023/01/18 08:07:54;;;;;;;;;27.75;27.00;;;;;1.50;73.21;98956.78;5039099;28;45652;-75
2023/01/18 08:10:20;;;;;;;;;26.50;26.50;;;;;1.51;73.35;98955.88;5057342;28;46028;-77
2023/01/18 08:12:46;;;;;;;;;24.25;23.00;;;;;1.40;73.14;98932.03;5061730;28;45292;-78
2023/01/18 08:15:12;;;;;;;;;31.00;30.00;;;;;1.50;72.86;98958.50;5061458;28;45591;-77
2023/01/18 08:17:37;;;;;;;;;29.25;29.25;;;;;1.43;72.80;98953.50;5051541;28;45531;-74
2023/01/18 08:20:04;;;;;;;;;24.50;24.50;;;;;1.40;73.16;98952.75;5038254;28;46131;-76
2023/01/18 08:22:30;;;;;;;;;30.25;29.00;;;;;1.50;72.93;98967.13;5055462;28;45339;-71
2023/01/18 08:24:58;;;;;;;;;27.00;27.00;;;;;1.52;73.51;98973.13;5058882;28;45368;-75
2023/01/18 08:27:24;;;;;;;;;26.50;26.25;;;;;1.46;73.56;98963.78;5058151;28;45540;-73
2023/01/18 08:29:49;;;;;;;;;25.00;24.50;;;;;1.55;72.84;98977.34;5058006;28;45606;-74
2023/01/18 08:32:15;;;;;;;;;25.50;25.50;;;;;1.49;73.24;98968.03;5058021;28;45494;-74
2023/01/18 08:34:40;;;;;;;;;25.50;24.50;;;;;1.43;73.45;98958.66;5058377;28;45407;-73
2023/01/18 08:37:06;;;;;;;;;35.00;30.50;;;;;1.63;73.16;98987.50;5057561;28;45383;-76
2023/01/18 08:39:31;;;;;;;;;32.25;32.25;;;;;1.70;73.45;98996.81;5056846;28;45257;-74
2023/01/18 08:41:57;;;;;;;;;30.25;29.25;;;;;1.65;73.90;98986.59;5057960;28;48458;-75
2023/01/18 08:44:22;;;;;;;;;32.00;32.00;;;;;1.75;73.36;99005.28;5057746;28;45409;-73
2023/01/18 08:46:48;;;;;;;;;30.50;30.50;;;;;1.77;72.63;99000.06;5058221;28;45520;-74
2023/01/18 08:49:15;;;;;;;;;37.25;34.00;;;;;1.80;73.01;99003.41;5066948;28;46272;-73
2023/01/18 08:51:40;;;;;;;;;43.25;39.75;;;;;1.83;73.32;99002.50;5059913;28;45394;-72
2023/01/18 08:54:06;;;;;;;;;37.00;36.00;;;;;1.86;73.09;99016.19;5058233;28;45544;-74
2023/01/18 08:56:31;;;;;;;;;32.00;30.75;;;;;1.88;72.95;99014.41;5059669;28;45289;-75
2023/01/18 08:58:57;;;;;;;;;31.75;30.75;;;;;1.92;72.90;99015.19;5058097;28;45936;-73
2023/01/18 09:01:22;;;;;;;;;37.25;33.50;;;;;1.87;73.07;99006.69;5057986;28;45298;-74
2023/01/18 09:03:49;;;;;;;;;38.50;37.50;;;;;1.99;72.54;99028.78;5057825;28;45361;-74
2023/01/18 09:06:15;;;;;;;;;27.50;27.00;;;;;1.99;73.20;99029.66;5058195;28;45719;-76
2023/01/18 09:08:41;;;;;;;;;32.75;30.75;;;;;2.00;72.95;99033.94;5057734;28;45446;-74
2023/01/18 09:11:09;;;;;;;;;34.00;34.00;;;;;2.02;73.42;99044.25;5057930;28;45371;-75
2023/01/18 09:13:35;;;;;;;;;34.25;33.00;;;;;1.95;72.14;99034.97;5058769;28;45448;-76
2023/01/18 09:16:06;;;;;;;;;29.50;28.75;;;;;1.93;72.40;99039.34;5058468;28;45601;-75
2023/01/18 09:18:31;;;;;;;;;33.75;33.75;;;;;2.06;72.98;99060.59;5057340;28;47373;-73
2023/01/18 09:20:57;;;;;;;;;27.00;27.00;;;;;1.99;72.65;99044.34;5056865;28;45364;-75
2023/01/18 09:23:24;;;;;;;;;39.00;37.75;;;;;2.10;72.41;99064.78;5057528;28;45450;-75
2023/01/18 09:26:01;;;;;;;;;31.25;31.25;;;;;2.10;72.13;99068.22;5057414;28;45512;-75
2023/01/18 09:28:27;;;;;;;;;32.25;32.00;;;;;2.14;72.60;99077.66;5057208;28;46499;-74
2023/01/18 09:30:52;;;;;;;;;31.75;31.75;;;;;2.11;71.66;99077.72;5059437;28;45409;-74
2023/01/18 09:33:18;;;;;;;;;28.75;26.75;;;;;2.18;71.97;99087.03;5061565;28;45409;-73
2023/01/18 09:35:43;;;;;;;;;32.00;32.00;;;;;2.22;71.17;99090.38;5057525;28;45306;-74
2023/01/18 09:38:11;;;;;;;;;29.75;29.75;;;;;2.21;72.01;99088.66;5056327;28;46415;-73
2023/01/18 09:40:46;;;;;;;;;32.25;31.00;;;;;2.14;71.28;99082.84;5056124;28;45429;-75
2023/01/18 09:43:26;;;;;;;;;27.25;24.25;;;;;2.18;70.62;99097.41;5055754;28;45412;-73
2023/01/18 09:45:52;;;;;;;;;24.50;24.50;;;;;2.17;71.14;99081.88;5057681;28;45440;-74
2023/01/18 09:48:51;;;;;;;;;32.25;31.00;;;;;2.33;70.69;99101.28;5056927;28;46175;-74
2023/01/18 09:51:31;;;;;;;;;25.50;25.50;;;;;2.40;70.72;99108.88;5053293;28;45341;-75
2023/01/18 09:54:07;;;;;;;;;28.25;28.25;;;;;2.41;70.55;99119.22;5056777;28;45454;-74
2023/01/18 09:57:07;;;;;;;;;30.00;29.25;;;;;2.44;71.04;99123.47;5057604;28;45496;-75
2023/01/18 09:59:42;;;;;;;;;28.75;28.75;;;;;2.48;70.74;99125.06;5033095;28;47143;-75
2023/01/18 10:02:23;;;;;;;;;28.50;28.50;;;;;2.43;70.50;99111.38;5057129;28;45275;-75
2023/01/18 10:04:54;;;;;;;;;30.75;30.75;;;;;2.55;70.03;99131.75;5057202;28;45259;-75
2023/01/18 10:07:22;;;;;;;;;23.00;23.00;;;;;2.53;69.71;99122.34;5072287;27;45521;-73
2023/01/18 10:09:55;;;;;;;;;22.25;22.25;;;;;2.55;69.46;99133.53;5057048;28;45406;-76
2023/01/18 10:12:44;;;;;;;;;24.75;24.50;;;;;2.61;69.80;99135.94;5057586;28;45457;-74
2023/01/18 10:15:27;;;;;;;;;31.50;30.75;;;;;2.66;70.29;99139.25;5055359;28;45430;-75
2023/01/18 10:17:55;;;;;;;;;31.50;30.50;;;;;2.67;69.81;99140.94;5056839;28;45354;-74
2023/01/18 10:20:21;;;;;;;;;25.75;25.75;;;;;2.74;70.11;99142.44;5056379;28;46070;-75
2023/01/18 10:22:59;;;;;;;;;25.75;25.25;;;;;2.75;69.56;99133.75;5056501;28;45254;-74
2023/01/18 10:25:34;;;;;;;;;24.75;24.75;;;;;2.84;69.52;99140.41;5056676;28;45341;-76
2023/01/18 10:28:24;;;;;;;;;20.00;20.00;;;;;2.91;69.39;99139.31;5072133;28;45402;-75
2023/01/18 10:30:54;;;;;;;;;25.25;24.00;;;;;2.99;69.66;99141.66;5054685;28;48530;-74
2023/01/18 10:33:24;;;;;;;;;20.00;20.00;;;;;3.05;69.80;99143.22;5057378;28;45453;-75
2023/01/18 10:35:59;;;;;;;;;19.50;19.50;;;;;3.12;68.97;99152.53;5056033;28;45474;-73
2023/01/18 10:38:27;;;;;;;;;18.00;18.00;;;;;3.19;69.74;99156.63;5056368;28;45335;-73
2023/01/18 10:40:58;;;;;;;;;14.75;14.50;;;;;3.26;68.55;99149.47;5054686;28;48473;-75
2023/01/18 10:43:25;;;;;;;;;17.50;16.50;;;;;3.33;69.23;99153.56;5055917;28;45393;-72
2023/01/18 10:45:52;;;;;;;;;20.00;20.00;;;;;3.38;69.09;99149.97;5054734;28;45316;-74
2023/01/18 10:48:23;;;;;;;;;14.50;14.25;;;;;3.41;68.52;99153.31;5072052;28;45239;-74
2023/01/18 10:50:52;;;;;;;;;13.00;13.00;;;;;3.42;68.74;99157.59;5056081;28;46248;-75
2023/01/18 10:53:26;;;;;;;;;10.00;10.00;;;;;3.41;68.79;99139.47;5056294;28;45246;-74
2023/01/18 10:55:58;;;;;;;;;20.00;18.50;;;;;3.50;68.41;99158.19;5055602;28;45354;-76
2023/01/18 10:58:32;;;;;;;;;11.75;11.75;;;;;3.50;68.17;99160.78;5059049;28;45307;-73
2023/01/18 11:01:00;;;;;;;;;12.25;12.00;;;;;3.49;68.40;99153.88;5058032;28;45490;-74
2023/01/18 11:03:27;;;;;;;;;21.00;19.00;;;;;3.54;67.51;99160.69;5058506;28;45258;-74
2023/01/18 11:06:02;;;;;;;;;14.00;13.25;;;;;3.57;68.28;99157.97;5055063;28;45278;-74
2023/01/18 11:08:30;;;;;;;;;15.00;15.00;;;;;3.60;68.53;99152.66;5056633;28;45437;-73
2023/01/18 11:11:14;;;;;;;;;14.50;14.50;;;;;3.62;67.50;99154.31;5058231;28;46399;-73
2023/01/18 11:13:47;;;;;;;;;17.75;17.75;;;;;3.63;67.71;99152.56;5055847;28;45385;-74
2023/01/18 11:16:19;;;;;;;;;14.50;13.25;;;;;3.63;67.91;99148.22;5055559;28;45275;-73
2023/01/18 11:18:54;;;;;;;;;15.25;15.25;;;;;3.65;67.83;99142.97;5056226;28;45398;-74
2023/01/18 11:21:19;;;;;;;;;16.25;16.25;;;;;3.63;68.01;99143.03;5055413;28;46207;-72
2023/01/18 11:23:45;;;;;;;;;15.50;14.50;;;;;3.69;67.86;99138.50;5055451;28;45375;-75
2023/01/18 11:26:20;;;;;;;;;12.25;11.75;;;;;3.69;67.98;99135.91;5055509;28;45398;-73
2023/01/18 11:28:51;;;;;;;;;17.50;17.50;;;;;3.74;68.62;99137.47;5054281;28;45352;-73
2023/01/18 11:31:20;;;;;;;;;14.00;14.00;;;;;3.76;68.10;99134.78;5055047;28;46331;-74
2023/01/18 11:33:55;;;;;;;;;14.75;14.75;;;;;3.84;67.67;99130.16;5054855;28;45428;-74
2023/01/18 11:36:41;;;;;;;;;12.50;12.50;;;;;3.65;68.36;99099.63;5055645;28;45416;-75
2023/01/18 11:39:28;;;;;;;;;9.00;9.00;;;;;3.92;67.92;99127.31;5055704;28;45242;-74
2023/01/18 11:42:15;;;;;;;;;18.75;18.75;;;;;3.98;67.74;99126.22;5054210;28;45328;-74
2023/01/18 11:44:50;;;;;;;;;13.00;13.00;;;;;3.94;67.94;99108.13;5055532;28;45548;-75
2023/01/18 11:47:24;;;;;;;;;17.25;16.75;;;;;4.19;67.89;99133.22;5055330;28;45259;-73
2023/01/18 11:50:17;;;;;;;;;19.50;19.50;;;;;4.30;67.79;99121.59;5056008;28;45256;-74
2023/01/18 11:52:51;;;;;;;;;10.50;10.50;;;;;4.40;67.26;99122.94;5056383;28;46686;-73
2023/01/18 11:55:46;;;;;;;;;12.00;12.00;;;;;4.46;67.04;99129.66;5055960;28;45280;-72
2023/01/18 11:58:30;;;;;;;;;14.25;13.25;;;;;4.52;66.79;99130.28;5056362;28;45335;-75
2023/01/18 12:01:25;;;;;;;;;12.75;12.75;;;;;4.59;66.57;99125.66;5056245;28;45541;-74
2023/01/18 12:04:04;;;;;;;;;16.00;12.00;;;;;4.62;65.81;99119.50;5055856;28;46042;-74